createdAt,value
2018-07-11T00:00:47.492Z,10.27
2018-07-11T00:03:15.701Z,9.17
2018-07-11T00:05:44.055Z,8.40
2018-07-11T00:08:12.415Z,10.67
2018-07-11T00:10:40.734Z,8.87
2018-07-11T00:13:09.087Z,8.70
2018-07-11T00:15:37.146Z,6.57
2018-07-11T00:18:05.527Z,9.47
2018-07-11T00:20:33.863Z,8.40
2018-07-11T00:23:02.226Z,7.13
2018-07-11T00:25:30.586Z,6.07
2018-07-11T00:27:59.004Z,10.73
2018-07-11T00:30:27.397Z,7.43
2018-07-11T00:32:55.796Z,7.23
2018-07-11T00:35:24.184Z,8.47
2018-07-11T00:37:52.971Z,7.63
2018-07-11T00:40:21.332Z,7.83
2018-07-11T00:42:49.776Z,6.90
2018-07-11T00:45:18.159Z,7.77
2018-07-11T00:47:46.583Z,9.93
2018-07-11T00:50:14.980Z,7.60
2018-07-11T00:52:43.346Z,7.20
2018-07-11T00:55:11.759Z,7.53
2018-07-11T00:57:39.805Z,7.87
2018-07-11T01:00:08.159Z,7.50
2018-07-11T01:02:36.523Z,6.67
2018-07-11T01:05:04.900Z,8.27
2018-07-11T01:07:33.267Z,7.97
2018-07-11T01:10:01.679Z,8.07
2018-07-11T01:12:30.052Z,8.67
2018-07-11T01:14:58.470Z,8.30
2018-07-11T01:17:32.011Z,10.23
2018-07-11T01:20:00.398Z,12.33
2018-07-11T01:22:28.752Z,10.07
2018-07-11T01:24:56.830Z,6.80
2018-07-11T01:27:25.199Z,8.17
2018-07-11T01:29:53.286Z,9.53
2018-07-11T01:32:21.623Z,6.87
2018-07-11T01:34:50.007Z,8.33
2018-07-11T01:37:18.352Z,11.80
2018-07-11T01:39:46.831Z,7.93
2018-07-11T01:42:15.288Z,9.33
2018-07-11T01:44:43.681Z,8.63
2018-07-11T01:47:12.026Z,8.80
2018-07-11T01:49:40.240Z,7.57
2018-07-11T01:52:19.860Z,10.77
2018-07-11T01:54:48.283Z,8.77
2018-07-11T01:57:16.615Z,7.43
2018-07-11T01:59:45.021Z,9.37
2018-07-11T02:02:13.427Z,8.30
2018-07-11T02:04:42.247Z,10.00
2018-07-11T02:07:11.579Z,11.57
2018-07-11T02:09:40.385Z,9.50
2018-07-11T02:12:08.776Z,7.33
2018-07-11T02:14:37.419Z,8.60
2018-07-11T02:17:05.822Z,11.63
2018-07-11T02:19:34.199Z,9.53
2018-07-11T02:22:02.603Z,10.63
2018-07-11T02:24:31.162Z,9.17
2018-07-11T02:26:59.551Z,10.90
2018-07-11T02:29:27.937Z,8.10
2018-07-11T02:31:56.380Z,12.33
2018-07-11T02:34:30.219Z,8.20
2018-07-11T02:36:58.589Z,10.37
2018-07-11T02:39:26.965Z,10.33
2018-07-11T02:41:55.555Z,9.30
2018-07-11T02:44:23.924Z,9.90
2018-07-11T02:46:57.653Z,16.43
2018-07-11T02:49:26.034Z,10.33
2018-07-11T02:51:54.630Z,8.20
2018-07-11T02:54:23.059Z,9.47
2018-07-11T02:56:51.210Z,9.73
2018-07-11T02:59:19.592Z,9.43
2018-07-11T03:01:48.025Z,8.03
2018-07-11T03:04:16.422Z,12.50
2018-07-11T03:06:44.824Z,12.00
2018-07-11T03:09:13.244Z,12.40
2018-07-11T03:11:41.661Z,10.30
2018-07-11T03:14:10.068Z,10.63
2018-07-11T03:16:38.463Z,10.70
2018-07-11T03:19:06.828Z,11.03
2018-07-11T03:21:35.263Z,10.40
2018-07-11T03:24:03.628Z,12.83
2018-07-11T03:26:31.743Z,11.43
2018-07-11T03:29:00.125Z,10.47
2018-07-11T03:31:28.510Z,11.40
2018-07-11T03:33:56.928Z,9.50
2018-07-11T03:36:25.311Z,11.20
2018-07-11T03:38:53.441Z,9.17
2018-07-11T03:41:21.802Z,9.87
2018-07-11T03:43:50.186Z,10.30
2018-07-11T03:46:18.582Z,12.50
2018-07-11T03:48:46.977Z,14.73
2018-07-11T03:51:15.365Z,11.97
2018-07-11T03:53:43.832Z,8.83
2018-07-11T03:56:12.185Z,12.53
2018-07-11T03:58:40.552Z,10.53
2018-07-11T04:01:08.911Z,11.53
2018-07-11T04:03:37.003Z,11.93
2018-07-11T04:06:05.372Z,12.03
2018-07-11T04:08:33.460Z,12.67
2018-07-11T04:11:01.805Z,14.20
2018-07-11T04:13:30.186Z,10.07
2018-07-11T04:15:58.534Z,12.87
2018-07-11T04:18:30.692Z,13.47
2018-07-11T04:21:01.695Z,13.53
2018-07-11T04:23:29.902Z,10.63
2018-07-11T04:25:58.308Z,9.03
2018-07-11T04:28:27.991Z,13.77
2018-07-11T04:30:56.528Z,10.27
2018-07-11T04:33:25.044Z,10.37
2018-07-11T04:35:54.428Z,11.73
2018-07-11T04:38:22.563Z,10.23
2018-07-11T04:40:51.385Z,12.77
2018-07-11T04:43:20.204Z,13.90
2018-07-11T04:45:49.069Z,15.73
2018-07-11T04:48:18.203Z,12.20
2018-07-11T04:50:47.686Z,11.83
2018-07-11T04:53:22.437Z,11.93
2018-07-11T04:55:55.997Z,11.60
2018-07-11T04:58:24.375Z,10.77
2018-07-11T05:00:52.504Z,11.10
2018-07-11T05:03:20.902Z,11.57
2018-07-11T05:05:49.332Z,11.20
2018-07-11T05:08:18.236Z,12.00
2018-07-11T05:10:46.672Z,11.43
2018-07-11T05:13:15.092Z,13.00
2018-07-11T05:15:43.455Z,10.27
2018-07-11T05:18:11.901Z,10.73
2018-07-11T05:20:40.305Z,11.93
2018-07-11T05:23:09.715Z,10.77
2018-07-11T05:25:38.098Z,11.27
2018-07-11T05:28:06.507Z,14.30
2018-07-11T05:30:34.959Z,11.47
2018-07-11T05:33:03.464Z,11.37
2018-07-11T05:35:31.827Z,13.57
2018-07-11T05:38:00.252Z,12.70
2018-07-11T05:40:28.634Z,16.40
2018-07-11T05:42:56.984Z,11.90
2018-07-11T05:45:25.659Z,9.53
2018-07-11T05:47:54.069Z,11.10
2018-07-11T05:50:22.449Z,10.83
2018-07-11T05:52:50.943Z,13.60
2018-07-11T05:55:19.360Z,12.87
2018-07-11T05:57:47.709Z,11.00
2018-07-11T06:00:16.133Z,14.87
2018-07-11T06:02:44.549Z,11.53
2018-07-11T06:05:12.935Z,11.03
2018-07-11T06:07:41.277Z,13.63
2018-07-11T06:10:09.929Z,12.70
2018-07-11T06:12:38.270Z,12.73
2018-07-11T06:15:06.660Z,14.57
2018-07-11T06:17:35.032Z,11.70
2018-07-11T06:20:03.430Z,12.10
2018-07-11T06:22:31.868Z,13.10
2018-07-11T06:25:00.252Z,12.87
2018-07-11T06:27:28.592Z,10.63
2018-07-11T06:29:56.972Z,14.07
2018-07-11T06:32:25.315Z,11.43
2018-07-11T06:34:53.713Z,12.33
2018-07-11T06:37:22.056Z,10.67
2018-07-11T06:39:50.431Z,13.77
2018-07-11T06:42:18.762Z,12.07
2018-07-11T06:44:47.191Z,13.53
2018-07-11T06:47:16.166Z,10.10
2018-07-11T06:49:46.738Z,11.80
2018-07-11T06:52:15.593Z,15.90
2018-07-11T06:54:43.767Z,13.10
2018-07-11T06:57:12.147Z,18.73
2018-07-11T06:59:41.547Z,17.73
2018-07-11T07:02:10.000Z,17.03
2018-07-11T07:04:38.400Z,18.20
2018-07-11T07:07:06.518Z,18.93
2018-07-11T07:09:34.920Z,16.17
2018-07-11T07:12:03.290Z,18.70
2018-07-11T07:14:31.747Z,17.93
2018-07-11T07:17:00.193Z,19.80
2018-07-11T07:19:28.752Z,15.97
2018-07-11T07:21:57.107Z,20.60
2018-07-11T07:24:25.492Z,20.30
2018-07-11T07:26:55.944Z,19.07
2018-07-11T07:29:24.415Z,18.10
2018-07-11T07:31:52.780Z,17.03
2018-07-11T07:34:21.691Z,16.90
2018-07-11T07:36:52.399Z,22.07
2018-07-11T07:39:20.856Z,17.87
2018-07-11T07:41:49.241Z,20.77
2018-07-11T07:44:17.633Z,26.83
2018-07-11T07:46:51.589Z,27.47
2018-07-11T07:49:19.980Z,25.67
2018-07-11T07:51:48.373Z,25.13
2018-07-11T07:54:16.515Z,29.03
2018-07-11T07:56:45.282Z,23.77
2018-07-11T07:59:13.848Z,25.33
2018-07-11T08:01:42.248Z,26.53
2018-07-11T08:04:12.050Z,26.97
2018-07-11T08:06:40.459Z,22.93
2018-07-11T08:09:08.833Z,23.70
2018-07-11T08:11:37.238Z,25.53
2018-07-11T08:14:05.644Z,27.63
2018-07-11T08:16:34.068Z,23.33
2018-07-11T08:19:02.451Z,26.63
2018-07-11T08:21:30.941Z,23.13
2018-07-11T08:24:10.546Z,25.73
2018-07-11T08:26:50.138Z,26.63
2018-07-11T08:29:43.341Z,22.20
2018-07-11T08:34:26.325Z,23.83
2018-07-11T08:37:04.142Z,22.97
2018-07-11T08:39:59.721Z,22.47
2018-07-11T08:44:44.537Z,24.47
2018-07-11T08:48:00.103Z,24.63
2018-07-11T08:51:46.534Z,20.83
2018-07-11T08:54:26.908Z,27.30
2018-07-11T08:57:14.281Z,22.97
2018-07-11T08:59:53.979Z,25.07
2018-07-11T09:02:28.448Z,21.27
2018-07-11T09:05:14.373Z,24.97
2018-07-11T09:07:54.098Z,22.23
2018-07-11T09:11:36.861Z,20.73
2018-07-11T09:14:23.861Z,20.07
2018-07-11T09:18:05.793Z,21.80
2018-07-11T09:20:45.374Z,22.93
2018-07-11T09:24:00.140Z,19.47
2018-07-11T09:26:28.488Z,21.73
2018-07-11T09:28:56.607Z,22.20
2018-07-11T09:31:24.996Z,21.63
2018-07-11T09:33:53.392Z,23.87
2018-07-11T09:36:21.729Z,22.97
2018-07-11T09:38:50.084Z,23.03
2018-07-11T09:41:18.483Z,26.40
2018-07-11T09:43:46.887Z,22.47
2018-07-11T09:46:15.281Z,24.03
2018-07-11T09:48:43.655Z,21.80
2018-07-11T09:51:12.077Z,17.60
2018-07-11T09:53:40.199Z,20.23
2018-07-11T09:56:08.620Z,18.10
2018-07-11T09:58:37.051Z,19.53
2018-07-11T10:01:10.734Z,17.90
2018-07-11T10:03:39.152Z,16.17
2018-07-11T10:06:07.561Z,15.43
2018-07-11T10:08:35.932Z,17.20
2018-07-11T10:11:04.336Z,16.97
2018-07-11T10:13:32.704Z,15.23
2018-07-11T10:16:01.072Z,16.03
2018-07-11T10:18:29.438Z,13.23
2018-07-11T10:20:57.820Z,13.63
2018-07-11T10:23:26.203Z,15.07
2018-07-11T10:25:54.585Z,13.43
2018-07-11T10:28:22.931Z,14.83
2018-07-11T10:30:51.370Z,13.47
2018-07-11T10:33:19.717Z,14.03
2018-07-11T10:35:48.099Z,15.83
2018-07-11T10:38:16.440Z,13.90
2018-07-11T10:40:44.816Z,12.47
2018-07-11T10:43:13.197Z,13.27
2018-07-11T10:45:41.613Z,13.10
2018-07-11T10:48:09.969Z,13.53
2018-07-11T10:50:38.402Z,14.17
2018-07-11T10:53:06.735Z,14.53
2018-07-11T10:55:35.164Z,16.30
2018-07-11T10:58:03.561Z,15.13
2018-07-11T11:00:36.664Z,15.27
2018-07-11T11:03:00.386Z,13.83
2018-07-11T11:05:28.796Z,14.03
2018-07-11T11:07:56.926Z,14.60
2018-07-11T11:10:25.326Z,17.90
2018-07-11T11:12:53.720Z,13.60
2018-07-11T11:15:22.113Z,14.47
2018-07-11T11:17:50.654Z,14.70
2018-07-11T11:20:19.044Z,15.60
2018-07-11T11:22:47.375Z,15.20
2018-07-11T11:25:16.392Z,15.93
2018-07-11T11:27:44.780Z,17.00
2018-07-11T11:30:13.112Z,15.33
2018-07-11T11:32:41.719Z,16.27
2018-07-11T11:35:10.096Z,12.43
2018-07-11T11:37:38.462Z,13.93
2018-07-11T11:40:06.822Z,15.43
2018-07-11T11:42:35.502Z,18.20
2018-07-11T11:45:03.636Z,18.07
2018-07-11T11:47:32.052Z,15.73
2018-07-11T11:50:00.419Z,13.93
2018-07-11T11:52:28.850Z,14.10
2018-07-11T11:54:57.395Z,14.63
2018-07-11T11:57:25.810Z,13.30
2018-07-11T11:59:53.878Z,16.17
2018-07-11T12:02:22.046Z,14.43
2018-07-11T12:04:50.125Z,14.10
2018-07-11T12:07:18.297Z,12.67
2018-07-11T12:09:46.635Z,12.40
2018-07-11T12:12:15.021Z,13.43
2018-07-11T12:14:43.372Z,13.13
2018-07-11T12:17:12.080Z,11.57
2018-07-11T12:19:40.739Z,10.43
2018-07-11T12:22:09.128Z,9.90
2018-07-11T12:24:37.518Z,10.40
2018-07-11T12:27:05.920Z,11.00
2018-07-11T12:29:34.271Z,13.20
2018-07-11T12:32:02.661Z,10.43
2018-07-11T12:34:31.044Z,11.30
2018-07-11T12:36:59.460Z,13.30
2018-07-11T12:39:27.843Z,10.90
2018-07-11T12:41:56.242Z,10.60
2018-07-11T12:44:24.374Z,11.73
2018-07-11T12:46:52.739Z,9.43
2018-07-11T12:49:21.126Z,9.27
2018-07-11T12:51:49.492Z,10.23
2018-07-11T12:54:17.965Z,9.73
2018-07-11T12:56:46.340Z,10.10
2018-07-11T12:59:15.185Z,8.73
2018-07-11T13:01:43.802Z,9.70
2018-07-11T13:04:12.209Z,9.10
2018-07-11T13:06:40.888Z,8.53
2018-07-11T13:09:09.264Z,9.67
2018-07-11T13:11:37.720Z,8.90
2018-07-11T13:14:05.843Z,8.73
2018-07-11T13:16:34.211Z,6.40
2018-07-11T13:19:02.567Z,6.00
2018-07-11T13:21:30.916Z,5.57
2018-07-11T13:23:59.296Z,5.50
2018-07-11T13:26:27.366Z,7.23
2018-07-11T13:28:55.736Z,7.83
2018-07-11T13:31:24.141Z,6.90
2018-07-11T13:33:52.236Z,7.30
2018-07-11T13:36:20.615Z,7.47
2018-07-11T13:38:48.991Z,6.30
2018-07-11T13:41:17.364Z,6.03
2018-07-11T13:43:45.725Z,6.00
2018-07-11T13:46:13.833Z,6.00
2018-07-11T13:48:42.185Z,5.07
2018-07-11T13:51:10.620Z,5.83
2018-07-11T13:53:39.116Z,5.23
2018-07-11T13:56:07.536Z,4.97
2018-07-11T13:58:36.252Z,4.83
2018-07-11T14:01:04.629Z,4.50
2018-07-11T14:03:33.033Z,5.70
2018-07-11T14:06:01.425Z,4.40
2018-07-11T14:08:29.852Z,4.83
2018-07-11T14:10:58.258Z,4.70
2018-07-11T14:13:26.596Z,6.07
2018-07-11T14:15:55.444Z,7.57
2018-07-11T14:18:23.812Z,8.40
2018-07-11T14:20:52.201Z,8.10
2018-07-11T14:23:51.633Z,7.93
2018-07-11T14:26:20.039Z,7.50
2018-07-11T14:28:49.066Z,6.30
2018-07-11T14:31:35.964Z,6.67
2018-07-11T14:34:10.700Z,6.97
2018-07-11T14:36:39.091Z,7.83
2018-07-11T14:39:08.053Z,7.93
2018-07-11T14:41:36.427Z,7.83
2018-07-11T14:44:04.552Z,8.13
2018-07-11T14:46:34.783Z,7.03
2018-07-11T14:49:03.472Z,7.23
2018-07-11T14:51:32.035Z,7.30
2018-07-11T14:54:00.322Z,8.03
2018-07-11T14:56:28.701Z,7.83
2018-07-11T14:58:58.355Z,8.13
2018-07-11T15:01:26.451Z,8.20
2018-07-11T15:03:54.885Z,7.43
2018-07-11T15:06:23.928Z,8.00
2018-07-11T15:08:53.320Z,7.40
2018-07-11T15:11:22.232Z,7.67
2018-07-11T15:13:50.672Z,7.70
2018-07-11T15:16:19.288Z,7.00
2018-07-11T15:18:48.356Z,7.03
2018-07-11T15:21:16.968Z,6.53
2018-07-11T15:23:45.311Z,7.30
2018-07-11T15:26:13.865Z,7.23
2018-07-11T15:28:42.337Z,8.30
2018-07-11T15:31:10.857Z,7.80
2018-07-11T15:33:39.291Z,7.80
2018-07-11T15:36:07.911Z,7.33
2018-07-11T15:38:36.259Z,7.93
2018-07-11T15:41:04.712Z,8.50
2018-07-11T15:43:33.415Z,6.80
2018-07-11T15:46:01.831Z,7.43
2018-07-11T15:48:30.173Z,7.27
2018-07-11T15:50:58.636Z,7.13
2018-07-11T15:53:27.317Z,6.80
2018-07-11T15:55:55.723Z,7.63
2018-07-11T15:58:27.665Z,8.20
2018-07-11T16:00:58.906Z,6.90
2018-07-11T16:03:28.189Z,7.20
2018-07-11T16:05:56.723Z,6.80
2018-07-11T16:08:25.084Z,7.00
2018-07-11T16:10:57.053Z,7.30
2018-07-11T16:13:25.460Z,8.80
2018-07-11T16:15:54.046Z,7.93
2018-07-11T16:18:22.590Z,7.77
2018-07-11T16:20:51.428Z,7.37
2018-07-11T16:23:19.882Z,7.30
2018-07-11T16:25:48.322Z,7.20
2018-07-11T16:28:16.820Z,7.00
2018-07-11T16:30:45.276Z,6.63
2018-07-11T16:33:13.687Z,6.63
2018-07-11T16:35:41.862Z,6.40
2018-07-11T16:38:10.615Z,5.90
2018-07-11T16:40:40.064Z,6.07
2018-07-11T16:43:09.388Z,6.67
2018-07-11T16:45:38.412Z,6.40
2018-07-11T16:48:07.322Z,9.97
2018-07-11T16:50:35.892Z,6.07
2018-07-11T16:53:04.358Z,6.47
2018-07-11T16:55:34.755Z,6.80
2018-07-11T16:58:03.257Z,6.40
2018-07-11T17:00:33.137Z,6.50
2018-07-11T17:03:10.435Z,7.70
2018-07-11T17:05:48.701Z,7.70
2018-07-11T17:08:25.395Z,8.53
2018-07-11T17:10:53.804Z,8.40
2018-07-11T17:13:23.117Z,9.43
2018-07-11T17:15:52.729Z,9.07
2018-07-11T17:18:33.997Z,9.40
2018-07-11T17:21:06.404Z,8.33
2018-07-11T17:23:35.539Z,10.03
2018-07-11T17:26:05.219Z,10.50
2018-07-11T17:28:33.665Z,10.07
2018-07-11T17:31:02.365Z,9.40
2018-07-11T17:33:30.787Z,10.03
2018-07-11T17:35:59.168Z,9.27
2018-07-11T17:38:29.383Z,10.03
2018-07-11T17:40:58.092Z,11.33
2018-07-11T17:43:33.852Z,9.77
2018-07-11T17:46:03.545Z,8.60
2018-07-11T17:48:41.927Z,9.27
2018-07-11T17:51:19.116Z,10.67
2018-07-11T17:53:57.207Z,11.67
2018-07-11T17:56:58.171Z,10.30
2018-07-11T17:59:45.716Z,10.90
2018-07-11T18:02:21.591Z,11.77
2018-07-11T18:05:07.463Z,12.97
2018-07-11T18:07:43.755Z,12.83
2018-07-11T18:10:14.668Z,10.93
2018-07-11T18:12:52.373Z,10.73
2018-07-11T18:15:28.310Z,10.70
2018-07-11T18:18:02.638Z,13.57
2018-07-11T18:20:43.577Z,15.70
2018-07-11T18:23:20.405Z,11.93
2018-07-11T18:26:00.188Z,11.47
2018-07-11T18:29:45.538Z,13.33
2018-07-11T18:32:19.585Z,12.90
2018-07-11T18:34:57.346Z,10.37
2018-07-11T18:38:38.837Z,12.90
2018-07-11T18:41:30.124Z,11.10
2018-07-11T18:44:13.072Z,11.70
2018-07-11T18:48:53.264Z,13.13
2018-07-11T18:52:39.576Z,10.30
2018-07-11T18:55:23.883Z,13.80
2018-07-11T18:58:59.388Z,11.80
2018-07-11T19:01:47.348Z,11.23
2018-07-11T19:05:25.485Z,15.47
2018-07-11T19:07:59.511Z,12.90
2018-07-11T19:10:46.303Z,11.90
2018-07-11T19:13:30.172Z,13.07
2018-07-11T19:16:06.337Z,13.67
2018-07-11T19:18:46.575Z,11.57
2018-07-11T19:21:22.888Z,11.93
2018-07-11T19:24:04.757Z,11.53
2018-07-11T19:26:41.903Z,11.00
2018-07-11T19:30:18.775Z,10.53
2018-07-11T19:32:53.731Z,12.20
2018-07-11T19:36:14.068Z,13.97
2018-07-11T19:38:53.252Z,12.33
2018-07-11T19:41:33.964Z,12.57
2018-07-11T19:46:17.695Z,11.53
2018-07-11T19:48:57.128Z,12.93
2018-07-11T19:51:41.040Z,11.47
2018-07-11T19:54:16.192Z,13.23
2018-07-11T19:56:47.872Z,10.77
2018-07-11T19:59:17.197Z,12.20
2018-07-11T20:01:46.638Z,10.43
2018-07-11T20:04:15.642Z,11.33
2018-07-11T20:06:44.421Z,10.97
2018-07-11T20:09:13.396Z,11.33
2018-07-11T20:11:41.812Z,11.47
2018-07-11T20:14:10.516Z,11.47
2018-07-11T20:16:39.488Z,9.67
2018-07-11T20:19:09.664Z,10.97
2018-07-11T20:21:39.588Z,8.80
2018-07-11T20:24:10.077Z,10.97
2018-07-11T20:26:40.364Z,12.97
2018-07-11T20:29:10.568Z,10.20
2018-07-11T20:31:39.108Z,8.30
2018-07-11T20:34:07.586Z,7.67
2018-07-11T20:36:36.679Z,7.83
2018-07-11T20:39:05.540Z,8.47
2018-07-11T20:41:34.377Z,7.30
2018-07-11T20:44:04.773Z,8.20
2018-07-11T20:46:35.257Z,7.53
2018-07-11T20:49:10.629Z,8.00
2018-07-11T20:51:38.857Z,8.47
2018-07-11T20:54:07.604Z,8.63
2018-07-11T20:56:36.653Z,8.13
2018-07-11T20:59:16.448Z,8.30
2018-07-11T21:04:03.898Z,7.93
2018-07-11T21:09:19.286Z,8.57
2018-07-11T21:12:02.752Z,7.97
2018-07-11T21:14:43.049Z,7.33
2018-07-11T21:17:35.444Z,7.47
2018-07-11T21:20:03.977Z,14.60
2018-07-11T21:22:33.002Z,8.37
2018-07-11T21:25:01.469Z,9.93
2018-07-11T21:27:29.837Z,11.63
2018-07-11T21:29:58.274Z,9.43
2018-07-11T21:32:26.704Z,10.67
2018-07-11T21:34:55.066Z,11.83
2018-07-11T21:37:23.440Z,11.40
2018-07-11T21:39:51.831Z,11.70
2018-07-11T21:42:20.181Z,9.20
2018-07-11T21:44:48.556Z,11.93
2018-07-11T21:47:16.941Z,10.93
2018-07-11T21:49:45.364Z,11.57
2018-07-11T21:52:13.724Z,11.23
2018-07-11T21:54:42.135Z,12.63
2018-07-11T21:57:10.492Z,15.10
2018-07-11T21:59:38.895Z,16.30
2018-07-11T22:02:07.271Z,13.93
2018-07-11T22:04:35.617Z,13.23
2018-07-11T22:07:04.022Z,15.03
2018-07-11T22:09:32.406Z,17.90
2018-07-11T22:12:00.800Z,13.00
2018-07-11T22:14:29.149Z,14.97
2018-07-11T22:16:57.674Z,12.33
2018-07-11T22:19:32.762Z,13.73
2018-07-11T22:22:00.345Z,15.97
2018-07-11T22:24:27.640Z,16.67
2018-07-11T22:26:54.972Z,11.50
2018-07-11T22:29:22.284Z,15.37
2018-07-11T22:31:49.869Z,14.00
2018-07-11T22:34:17.182Z,14.90
2018-07-11T22:36:44.507Z,13.87
2018-07-11T22:39:11.815Z,15.47
2018-07-11T22:41:39.147Z,14.67
2018-07-11T22:44:06.457Z,14.33
2018-07-11T22:46:33.783Z,14.17
2018-07-11T22:49:01.347Z,14.67
2018-07-11T22:51:28.672Z,16.13
2018-07-11T22:53:55.977Z,19.67
2018-07-11T22:56:23.299Z,12.90
2018-07-11T22:58:51.146Z,15.50
2018-07-11T23:01:18.449Z,19.30
2018-07-11T23:03:45.783Z,15.53
2018-07-11T23:06:13.332Z,13.53
2018-07-11T23:08:40.665Z,17.90
2018-07-11T23:11:07.972Z,16.67
2018-07-11T23:13:35.301Z,16.93
2018-07-11T23:16:02.617Z,14.70
2018-07-11T23:18:29.957Z,16.73
2018-07-11T23:20:58.809Z,15.23
2018-07-11T23:23:26.372Z,15.43
2018-07-11T23:25:53.923Z,19.40
2018-07-11T23:28:21.520Z,17.23
2018-07-11T23:30:48.827Z,20.87
2018-07-11T23:33:18.343Z,20.80
2018-07-11T23:35:47.327Z,18.27
2018-07-11T23:38:15.686Z,20.43
2018-07-11T23:40:43.045Z,20.70
2018-07-11T23:43:10.388Z,23.03
2018-07-11T23:45:37.697Z,24.97
2018-07-11T23:48:05.042Z,27.00
2018-07-11T23:50:32.360Z,27.73
2018-07-11T23:52:59.716Z,29.03
2018-07-11T23:55:27.020Z,25.93
2018-07-11T23:57:54.352Z,23.43
